SJV340 WARR-WAOO
Flight info
| Callsign | SJV340 |
|---|---|
| Flight time | N/A |
| Altitude | 35000 |
| Route | RAMPY T13 IKAPI |
| Aircraft | A320/M-SDE3FGHIRWY/LB1 |
Departure
| Time | 2026-04-30 14:35 |
|---|---|
| Airport | Juanda International Airport (WARR) |
Arrival
| Time | N/A |
|---|---|
| Airport | Syamsudin Noor International Airport (WAOO) |
| Time | Latitude | Longitude | Altitude | Speed | Heading |
|---|---|---|---|---|---|
| 2026-04-30 14:02 | -7.37524 | 112.79058 | 9 ft | 0 kts | 9° |
| 2026-04-30 14:24 | -7.37539 | 112.79055 | 10 ft | 4 kts | 8° |
| 2026-04-30 14:24 | -7.37564 | 112.79052 | 11 ft | 4 kts | 3° |
| 2026-04-30 14:25 | -7.37610 | 112.79060 | 9 ft | 4 kts | 300° |
| 2026-04-30 14:25 | -7.37613 | 112.79066 | 9 ft | 0 kts | 279° |
| 2026-04-30 14:28 | -7.37613 | 112.79065 | 9 ft | 1 kts | 279° |
| 2026-04-30 14:28 | -7.37610 | 112.79050 | 10 ft | 3 kts | 279° |
| 2026-04-30 14:28 | -7.37607 | 112.79017 | 9 ft | 6 kts | 276° |
| 2026-04-30 14:28 | -7.37599 | 112.78966 | 9 ft | 8 kts | 280° |
| 2026-04-30 14:29 | -7.37684 | 112.78902 | 9 ft | 12 kts | 189° |
| 2026-04-30 14:29 | -7.37811 | 112.78875 | 9 ft | 11 kts | 213° |
| 2026-04-30 14:30 | -7.37783 | 112.78533 | 9 ft | 19 kts | 278° |
| 2026-04-30 14:31 | -7.37735 | 112.78235 | 9 ft | 24 kts | 279° |
| 2026-04-30 14:31 | -7.37679 | 112.77886 | 9 ft | 27 kts | 279° |
| 2026-04-30 14:31 | -7.37651 | 112.77713 | 9 ft | 25 kts | 279° |
| 2026-04-30 14:32 | -7.37609 | 112.77452 | 9 ft | 12 kts | 278° |
| 2026-04-30 14:32 | -7.37627 | 112.77397 | 9 ft | 10 kts | 228° |
| 2026-04-30 14:32 | -7.37677 | 112.77380 | 8 ft | 0 kts | 186° |
| 2026-04-30 14:33 | -7.37681 | 112.77380 | 8 ft | 2 kts | 186° |
| 2026-04-30 14:33 | -7.37701 | 112.77378 | 9 ft | 4 kts | 186° |
| 2026-04-30 14:34 | -7.37737 | 112.77376 | 9 ft | 6 kts | 168° |
| 2026-04-30 14:34 | -7.37772 | 112.77406 | 9 ft | 7 kts | 121° |
| 2026-04-30 14:34 | -7.37780 | 112.77432 | 11 ft | 1 kts | 102° |
| 2026-04-30 14:34 | -7.37792 | 112.77498 | 9 ft | 36 kts | 100° |
| 2026-04-30 14:35 | -7.37968 | 112.78581 | 10 ft | 142 kts | 99° |
| 2026-04-30 14:35 | -7.38206 | 112.80090 | 305 ft | 178 kts | 99° |
| 2026-04-30 14:35 | -7.38400 | 112.81365 | 854 ft | 186 kts | 99° |
| 2026-04-30 14:36 | -7.38593 | 112.82685 | 1461 ft | 193 kts | 99° |
| 2026-04-30 14:36 | -7.38816 | 112.84064 | 1971 ft | 211 kts | 99° |
| 2026-04-30 14:36 | -7.39073 | 112.85608 | 2330 ft | 237 kts | 99° |
| 2026-04-30 14:36 | -7.39364 | 112.87344 | 2402 ft | 258 kts | 99° |
| 2026-04-30 14:37 | -7.39661 | 112.89141 | 2405 ft | 261 kts | 99° |
| 2026-04-30 14:37 | -7.39794 | 112.90956 | 2411 ft | 261 kts | 86° |
| 2026-04-30 14:37 | -7.39597 | 112.92177 | 2404 ft | 261 kts | 75° |
| 2026-04-30 14:37 | -7.38573 | 112.94363 | 2407 ft | 263 kts | 54° |
| 2026-04-30 14:38 | -7.37829 | 112.95348 | 2722 ft | 269 kts | 53° |
| 2026-04-30 14:38 | -7.36710 | 112.96842 | 3737 ft | 267 kts | 53° |
| 2026-04-30 14:38 | -7.35594 | 112.98345 | 4669 ft | 270 kts | 54° |
| 2026-04-30 14:38 | -7.34460 | 112.99877 | 5511 ft | 274 kts | 54° |
| 2026-04-30 14:39 | -7.33311 | 113.01429 | 6374 ft | 277 kts | 54° |
| 2026-04-30 14:39 | -7.32150 | 113.02996 | 7168 ft | 281 kts | 54° |
| 2026-04-30 14:39 | -7.30974 | 113.04578 | 7969 ft | 284 kts | 54° |
| 2026-04-30 14:40 | -7.28582 | 113.07789 | 9555 ft | 289 kts | 54° |
| 2026-04-30 14:40 | -7.27244 | 113.09326 | 10198 ft | 298 kts | 44° |
| 2026-04-30 14:40 | -7.25520 | 113.10634 | 10377 ft | 322 kts | 31° |
| 2026-04-30 14:40 | -7.23408 | 113.11548 | 10714 ft | 338 kts | 17° |
| 2026-04-30 14:41 | -7.21095 | 113.12106 | 10950 ft | 345 kts | 14° |
| 2026-04-30 14:41 | -7.18736 | 113.12654 | 11322 ft | 349 kts | 14° |
| 2026-04-30 14:41 | -7.16359 | 113.13212 | 11967 ft | 352 kts | 15° |
| 2026-04-30 14:41 | -7.13965 | 113.13777 | 12606 ft | 355 kts | 15° |
| 2026-04-30 14:42 | -7.11551 | 113.14345 | 13230 ft | 358 kts | 15° |
| 2026-04-30 14:42 | -7.09120 | 113.14920 | 13840 ft | 361 kts | 15° |
| 2026-04-30 14:42 | -7.06699 | 113.15493 | 14387 ft | 363 kts | 15° |
| 2026-04-30 14:42 | -7.04223 | 113.16075 | 14929 ft | 366 kts | 15° |
| 2026-04-30 14:43 | -7.01730 | 113.16657 | 15460 ft | 370 kts | 15° |
| 2026-04-30 14:43 | -6.99183 | 113.17250 | 16002 ft | 373 kts | 15° |
| 2026-04-30 14:43 | -6.96674 | 113.17837 | 16527 ft | 376 kts | 15° |
| 2026-04-30 14:43 | -6.94118 | 113.18438 | 17058 ft | 379 kts | 15° |
| 2026-04-30 14:44 | -6.91542 | 113.19043 | 17584 ft | 382 kts | 15° |
| 2026-04-30 14:44 | -6.88939 | 113.19652 | 18115 ft | 386 kts | 15° |
| 2026-04-30 14:44 | -6.86305 | 113.20270 | 18583 ft | 389 kts | 15° |
| 2026-04-30 14:44 | -6.83661 | 113.20891 | 19048 ft | 392 kts | 15° |
| 2026-04-30 14:45 | -6.80996 | 113.21517 | 19514 ft | 394 kts | 15° |
| 2026-04-30 14:45 | -6.78314 | 113.22143 | 19994 ft | 397 kts | 15° |
| 2026-04-30 14:45 | -6.75609 | 113.22772 | 20469 ft | 400 kts | 15° |
| 2026-04-30 14:45 | -6.72885 | 113.23405 | 20833 ft | 403 kts | 15° |
| 2026-04-30 14:46 | -6.70190 | 113.24033 | 20928 ft | 403 kts | 15° |
| 2026-04-30 14:46 | -6.67458 | 113.24672 | 20940 ft | 403 kts | 15° |
| 2026-04-30 14:46 | -6.64724 | 113.25313 | 20940 ft | 403 kts | 15° |
| 2026-04-30 14:46 | -6.61988 | 113.25953 | 20943 ft | 403 kts | 15° |
| 2026-04-30 14:47 | -6.59264 | 113.26590 | 21282 ft | 395 kts | 15° |
| 2026-04-30 14:47 | -6.56659 | 113.27198 | 22517 ft | 375 kts | 15° |
| 2026-04-30 14:47 | -6.54131 | 113.27786 | 23188 ft | 376 kts | 15° |
| 2026-04-30 14:47 | -6.51538 | 113.28395 | 23323 ft | 388 kts | 15° |
| 2026-04-30 14:48 | -6.48877 | 113.29023 | 23455 ft | 399 kts | 15° |
| 2026-04-30 14:48 | -6.46135 | 113.29671 | 23572 ft | 410 kts | 15° |
| 2026-04-30 14:48 | -6.43353 | 113.30326 | 24010 ft | 410 kts | 15° |
| 2026-04-30 14:48 | -6.40576 | 113.30974 | 24506 ft | 409 kts | 15° |
| 2026-04-30 14:49 | -6.37819 | 113.31615 | 25060 ft | 406 kts | 15° |
| 2026-04-30 14:49 | -6.35073 | 113.32253 | 25646 ft | 402 kts | 15° |
| 2026-04-30 14:49 | -6.32366 | 113.32884 | 26250 ft | 398 kts | 15° |
| 2026-04-30 14:49 | -6.29685 | 113.33513 | 26890 ft | 393 kts | 15° |
| 2026-04-30 14:50 | -6.24498 | 113.34924 | 28205 ft | 378 kts | 24° |
| 2026-04-30 14:50 | -6.22135 | 113.36013 | 28888 ft | 369 kts | 28° |
| 2026-04-30 14:51 | -6.17651 | 113.38219 | 30247 ft | 352 kts | 28° |
| 2026-04-30 14:51 | -6.15474 | 113.39281 | 30760 ft | 346 kts | 28° |
| 2026-04-30 14:51 | -6.11121 | 113.41398 | 31275 ft | 349 kts | 28° |
| 2026-04-30 14:52 | -6.08931 | 113.42466 | 31537 ft | 351 kts | 28° |
| 2026-04-30 14:52 | -6.04484 | 113.44642 | 31860 ft | 361 kts | 28° |
| 2026-04-30 14:52 | -6.02204 | 113.45756 | 31969 ft | 368 kts | 28° |
| 2026-04-30 14:53 | -5.97652 | 113.47974 | 32787 ft | 361 kts | 27° |
| 2026-04-30 14:53 | -5.95390 | 113.49077 | 33035 ft | 362 kts | 27° |
| 2026-04-30 14:54 | -5.90832 | 113.51302 | 33519 ft | 366 kts | 27° |
| 2026-04-30 14:54 | -5.86237 | 113.53545 | 33980 ft | 368 kts | 27° |
| 2026-04-30 14:55 | -5.81626 | 113.55801 | 34332 ft | 373 kts | 27° |
| 2026-04-30 14:55 | -5.79291 | 113.56942 | 34538 ft | 374 kts | 27° |
| 2026-04-30 14:55 | -5.74588 | 113.59234 | 34897 ft | 379 kts | 27° |
| 2026-04-30 14:56 | -5.69742 | 113.61595 | 34952 ft | 394 kts | 27° |
| 2026-04-30 14:56 | -5.64700 | 113.64051 | 34948 ft | 411 kts | 27° |
| 2026-04-30 14:57 | -5.62103 | 113.65316 | 34947 ft | 419 kts | 27° |
| 2026-04-30 14:57 | -5.56753 | 113.67917 | 34950 ft | 435 kts | 26° |
| 2026-04-30 14:58 | -5.51248 | 113.70604 | 34948 ft | 450 kts | 27° |
| 2026-04-30 14:58 | -5.42719 | 113.74757 | 34949 ft | 455 kts | 26° |
| 2026-04-30 15:00 | -5.28459 | 113.81709 | 34947 ft | 455 kts | 26° |
| 2026-04-30 15:01 | -5.17054 | 113.87256 | 34958 ft | 456 kts | 26° |
| 2026-04-30 15:01 | -5.08482 | 113.91437 | 34967 ft | 456 kts | 26° |
| 2026-04-30 15:02 | -5.02770 | 113.94208 | 34963 ft | 456 kts | 26° |
| 2026-04-30 15:03 | -4.94073 | 113.97944 | 34957 ft | 456 kts | 13° |
| 2026-04-30 15:03 | -4.87835 | 113.99136 | 34963 ft | 456 kts | 11° |
| 2026-04-30 15:04 | -4.72236 | 114.02041 | 34484 ft | 456 kts | 11° |
| 2026-04-30 15:05 | -4.62879 | 114.03780 | 33796 ft | 456 kts | 11° |
| 2026-04-30 15:06 | -4.56632 | 114.04946 | 33255 ft | 457 kts | 11° |
| 2026-04-30 15:06 | -4.50375 | 114.06115 | 31870 ft | 457 kts | 12° |
| 2026-04-30 15:07 | -4.44148 | 114.07275 | 30732 ft | 453 kts | 12° |
| 2026-04-30 15:07 | -4.37975 | 114.08417 | 29528 ft | 448 kts | 12° |
| 2026-04-30 15:08 | -4.31900 | 114.09543 | 28415 ft | 441 kts | 12° |
| 2026-04-30 15:08 | -4.22954 | 114.11208 | 26765 ft | 431 kts | 13° |
| 2026-04-30 15:09 | -4.17104 | 114.12300 | 25889 ft | 421 kts | 13° |
| 2026-04-30 15:09 | -4.11369 | 114.12844 | 24853 ft | 413 kts | 358° |
| 2026-04-30 15:10 | -4.05717 | 114.12361 | 23756 ft | 407 kts | 358° |
| 2026-04-30 15:11 | -3.94650 | 114.11438 | 21301 ft | 391 kts | 358° |
| 2026-04-30 15:11 | -3.89284 | 114.10991 | 20085 ft | 383 kts | 357° |
| 2026-04-30 15:12 | -3.81427 | 114.10330 | 18412 ft | 372 kts | 357° |
| 2026-04-30 15:13 | -3.76308 | 114.09903 | 17171 ft | 366 kts | 357° |
| 2026-04-30 15:14 | -3.66313 | 114.09075 | 15080 ft | 355 kts | 357° |
| 2026-04-30 15:14 | -3.59067 | 114.08465 | 13431 ft | 346 kts | 357° |
| 2026-04-30 15:16 | -3.47346 | 114.07904 | 10975 ft | 329 kts | 19° |
| 2026-04-30 15:17 | -3.43252 | 114.15054 | 9799 ft | 303 kts | 86° |
| 2026-04-30 15:18 | -3.42431 | 114.25048 | 7684 ft | 283 kts | 85° |
| 2026-04-30 15:19 | -3.41939 | 114.30885 | 6317 ft | 279 kts | 85° |